createdAt,value
2019-05-06T00:01:11.477Z,4.70
2019-05-06T00:04:14.083Z,4.70
2019-05-06T00:07:15.933Z,4.60
2019-05-06T00:10:24.434Z,4.60
2019-05-06T00:13:24.711Z,4.50
2019-05-06T00:16:26.925Z,4.50
2019-05-06T00:19:29.146Z,4.50
2019-05-06T00:22:31.332Z,4.50
2019-05-06T00:25:41.188Z,4.50
2019-05-06T00:28:48.079Z,4.40
2019-05-06T00:31:50.288Z,4.40
2019-05-06T00:34:54.484Z,4.40
2019-05-06T00:37:54.824Z,4.40
2019-05-06T00:40:59.463Z,4.40
2019-05-06T00:44:03.913Z,4.40
2019-05-06T00:47:04.403Z,4.40
2019-05-06T00:50:06.264Z,4.40
2019-05-06T00:53:09.101Z,4.40
2019-05-06T00:56:11.365Z,4.40
2019-05-06T00:59:14.327Z,4.30
2019-05-06T01:02:15.875Z,4.30
2019-05-06T01:05:18.127Z,4.30
2019-05-06T01:08:20.352Z,4.20
2019-05-06T01:11:23.865Z,4.30
2019-05-06T01:14:30.181Z,4.20
2019-05-06T01:17:33.885Z,4.20
2019-05-06T01:20:34.669Z,4.20
2019-05-06T01:23:38.039Z,4.10
2019-05-06T01:26:40.259Z,4.10
2019-05-06T01:29:44.148Z,4.10
2019-05-06T01:32:44.732Z,4.00
2019-05-06T01:35:46.931Z,4.00
2019-05-06T01:38:53.745Z,4.00
2019-05-06T01:42:00.595Z,4.00
2019-05-06T01:45:04.746Z,3.90
2019-05-06T01:48:05.468Z,3.90
2019-05-06T01:51:07.691Z,3.90
2019-05-06T01:54:09.925Z,3.90
2019-05-06T01:57:13.731Z,3.90
2019-05-06T02:00:14.480Z,3.90
2019-05-06T02:03:16.692Z,3.90
2019-05-06T02:06:18.928Z,3.90
2019-05-06T02:09:21.167Z,3.90
2019-05-06T02:12:24.572Z,3.90
2019-05-06T02:15:25.587Z,3.90
2019-05-06T02:18:27.807Z,3.90
2019-05-06T02:21:35.768Z,3.90
2019-05-06T02:24:45.683Z,3.90
2019-05-06T02:27:47.959Z,3.90
2019-05-06T02:31:07.611Z,3.80
2019-05-06T02:34:17.222Z,3.90
2019-05-06T02:37:31.014Z,3.90
2019-05-06T02:40:33.441Z,3.90
2019-05-06T02:43:35.490Z,3.90
2019-05-06T02:46:37.961Z,3.90
2019-05-06T02:49:44.408Z,3.90
2019-05-06T02:52:46.107Z,3.90
2019-05-06T02:55:48.333Z,3.80
2019-05-06T02:58:53.535Z,3.90
2019-05-06T03:01:53.776Z,3.90
2019-05-06T03:04:55.098Z,3.90
2019-05-06T03:07:57.847Z,3.80
2019-05-06T03:10:59.552Z,3.80
2019-05-06T03:14:03.261Z,3.80
2019-05-06T03:17:04.121Z,3.80
2019-05-06T03:20:06.528Z,3.80
2019-05-06T03:23:08.851Z,3.80
2019-05-06T03:26:13.656Z,3.80
2019-05-06T03:29:13.717Z,3.80
2019-05-06T03:32:22.172Z,3.80
2019-05-06T03:35:33.747Z,3.80
2019-05-06T03:38:22.687Z,3.80
2019-05-06T03:41:26.111Z,3.80
2019-05-06T03:44:24.648Z,3.80
2019-05-06T03:47:34.566Z,3.80
2019-05-06T03:50:33.820Z,3.80
2019-05-06T03:53:36.052Z,3.80
2019-05-06T03:56:38.340Z,3.80
2019-05-06T03:59:43.428Z,3.80
2019-05-06T04:02:43.610Z,3.80
2019-05-06T04:05:45.245Z,3.80
2019-05-06T04:08:48.361Z,3.80
2019-05-06T04:11:53.893Z,3.80
2019-05-06T04:14:54.035Z,3.70
2019-05-06T04:17:58.051Z,3.70
2019-05-06T04:21:08.615Z,3.70
2019-05-06T04:24:14.726Z,3.70
2019-05-06T04:27:23.551Z,3.80
2019-05-06T04:30:25.792Z,3.70
2019-05-06T04:33:28.503Z,3.80
2019-05-06T04:36:33.577Z,3.70
2019-05-06T04:39:33.277Z,3.80
2019-05-06T04:42:35.294Z,3.70
2019-05-06T04:45:37.559Z,3.80
2019-05-06T04:48:39.860Z,3.80
2019-05-06T04:51:43.141Z,3.80
2019-05-06T04:54:44.433Z,3.80
2019-05-06T04:57:46.711Z,3.80
2019-05-06T05:00:49.053Z,3.80
2019-05-06T05:03:53.838Z,3.80
2019-05-06T05:06:53.647Z,3.80
2019-05-06T05:10:03.386Z,3.80
2019-05-06T05:13:12.526Z,3.90
2019-05-06T05:16:19.436Z,3.90
2019-05-06T05:19:23.037Z,3.90
2019-05-06T05:22:24.448Z,3.90
2019-05-06T05:25:26.717Z,4.00
2019-05-06T05:28:28.952Z,4.10
2019-05-06T05:31:33.165Z,4.20
2019-05-06T05:34:40.247Z,4.20
2019-05-06T05:37:35.980Z,4.30
2019-05-06T05:40:38.250Z,4.30
2019-05-06T05:43:52.573Z,4.40
2019-05-06T05:46:52.763Z,4.40
2019-05-06T05:50:03.107Z,4.40
2019-05-06T05:53:03.023Z,4.50
2019-05-06T05:56:05.440Z,4.70
2019-05-06T05:59:07.700Z,4.90
2019-05-06T06:02:09.949Z,5.10
2019-05-06T06:05:12.468Z,5.40
2019-05-06T06:08:14.484Z,5.50
2019-05-06T06:11:22.968Z,5.70
2019-05-06T06:14:33.302Z,6.00
2019-05-06T06:17:42.612Z,6.20
2019-05-06T06:21:17.560Z,6.40
2019-05-06T06:24:13.213Z,6.60
2019-05-06T06:27:15.311Z,6.80
2019-05-06T06:30:17.728Z,6.90
2019-05-06T06:33:22.170Z,7.00
2019-05-06T06:36:29.642Z,7.00
2019-05-06T06:39:36.776Z,7.10
2019-05-06T06:42:39.049Z,7.30
2019-05-06T06:45:42.159Z,7.40
2019-05-06T06:48:43.589Z,7.60
2019-05-06T06:51:45.823Z,7.70
2019-05-06T06:54:48.088Z,7.90
2019-05-06T06:58:27.607Z,8.10
2019-05-06T07:01:34.057Z,8.30
2019-05-06T07:04:43.092Z,8.40
2019-05-06T07:07:47.318Z,8.60
2019-05-06T07:10:45.953Z,8.50
2019-05-06T07:13:52.871Z,8.50
2019-05-06T07:16:54.037Z,8.40
2019-05-06T07:19:57.380Z,8.40
2019-05-06T07:23:01.929Z,8.40
2019-05-06T07:26:03.179Z,8.40
2019-05-06T07:29:15.254Z,8.30
2019-05-06T07:32:07.376Z,8.20
2019-05-06T07:35:09.651Z,8.30
2019-05-06T07:38:12.037Z,8.30
2019-05-06T07:41:16.962Z,8.10
2019-05-06T07:44:57.850Z,8.00
2019-05-06T07:48:05.680Z,7.90
2019-05-06T07:51:08.033Z,7.80
2019-05-06T07:54:12.131Z,7.80
2019-05-06T07:57:12.821Z,7.80
2019-05-06T08:00:14.776Z,7.70
2019-05-06T08:03:17.068Z,7.50
2019-05-06T08:06:19.399Z,7.40
2019-05-06T08:09:22.096Z,7.30
2019-05-06T08:12:23.996Z,7.30
2019-05-06T08:15:26.249Z,7.20
2019-05-06T08:18:28.513Z,7.30
2019-05-06T08:21:32.648Z,7.40
2019-05-06T08:24:33.835Z,7.40
2019-05-06T08:27:36.109Z,7.40
2019-05-06T08:30:38.339Z,7.30
2019-05-06T08:33:40.551Z,7.40
2019-05-06T08:36:48.475Z,7.50
2019-05-06T08:39:52.688Z,7.60
2019-05-06T08:42:53.283Z,7.70
2019-05-06T08:45:55.294Z,8.00
2019-05-06T08:48:57.563Z,8.20
2019-05-06T08:52:04.380Z,8.30
2019-05-06T08:55:06.668Z,8.40
2019-05-06T08:58:08.948Z,8.50
2019-05-06T09:01:12.460Z,8.60
2019-05-06T09:04:16.276Z,8.60
2019-05-06T09:07:16.335Z,8.60
2019-05-06T09:10:18.558Z,8.60
2019-05-06T09:13:23.013Z,8.50
2019-05-06T09:16:23.047Z,8.50
2019-05-06T09:19:25.284Z,8.50
2019-05-06T09:22:27.491Z,8.50
2019-05-06T09:25:32.132Z,8.40
2019-05-06T09:28:36.439Z,8.30
2019-05-06T09:31:43.304Z,8.20
2019-05-06T09:34:52.898Z,8.20
2019-05-06T09:37:54.653Z,8.20
2019-05-06T09:40:56.907Z,8.30
2019-05-06T09:43:59.157Z,8.30
2019-05-06T09:47:02.439Z,8.40
2019-05-06T09:50:04.950Z,8.50
2019-05-06T09:53:08.549Z,8.70
2019-05-06T09:56:15.267Z,8.80
2019-05-06T09:59:17.511Z,8.90
2019-05-06T10:02:19.842Z,8.90
2019-05-06T10:05:22.127Z,9.00
2019-05-06T10:08:24.387Z,9.10
2019-05-06T10:11:26.734Z,9.00
2019-05-06T10:14:28.971Z,9.00
2019-05-06T10:17:31.221Z,9.10
2019-05-06T10:20:34.473Z,9.00
2019-05-06T10:23:37.019Z,8.90
2019-05-06T10:26:43.294Z,8.80
2019-05-06T10:29:52.190Z,8.70
2019-05-06T10:32:56.403Z,8.60
2019-05-06T10:36:02.805Z,8.50
2019-05-06T10:39:06.091Z,8.40
2019-05-06T10:42:13.069Z,8.40
2019-05-06T10:45:19.268Z,8.40
2019-05-06T10:48:22.483Z,8.40
2019-05-06T10:51:32.220Z,8.40
2019-05-06T10:54:32.294Z,8.40
2019-05-06T10:57:40.473Z,8.40
2019-05-06T11:00:42.444Z,8.50
2019-05-06T11:03:43.541Z,8.60
2019-05-06T11:06:45.787Z,8.70
2019-05-06T11:09:48.095Z,8.70
2019-05-06T11:12:52.201Z,8.80
2019-05-06T11:15:55.433Z,8.80
2019-05-06T11:18:54.865Z,8.80
2019-05-06T11:21:57.138Z,8.80
2019-05-06T11:24:59.355Z,8.70
2019-05-06T11:28:02.983Z,8.80
2019-05-06T11:32:07.408Z,8.70
2019-05-06T11:35:14.523Z,8.80
2019-05-06T11:38:17.916Z,8.80
2019-05-06T11:41:20.101Z,8.80
2019-05-06T11:44:23.913Z,8.70
2019-05-06T11:47:24.539Z,8.70
2019-05-06T11:50:26.780Z,8.60
2019-05-06T11:53:29.023Z,8.60
2019-05-06T11:56:32.694Z,8.70
2019-05-06T11:59:33.580Z,8.70
2019-05-06T12:02:35.836Z,8.70
2019-05-06T12:05:38.094Z,8.70
2019-05-06T12:08:40.308Z,8.70
2019-05-06T12:11:43.123Z,8.80
2019-05-06T12:14:44.804Z,8.80
2019-05-06T12:17:47.079Z,8.90
2019-05-06T12:20:49.304Z,9.00
2019-05-06T12:23:53.664Z,9.00
2019-05-06T12:26:53.820Z,8.90
2019-05-06T12:29:56.086Z,8.80
2019-05-06T12:33:36.710Z,8.80
2019-05-06T12:36:38.967Z,8.70
2019-05-06T12:39:45.874Z,8.70
2019-05-06T12:42:53.254Z,8.60
2019-05-06T12:45:54.776Z,8.60
2019-05-06T12:48:57.050Z,8.50
2019-05-06T12:51:59.299Z,8.40
2019-05-06T12:55:17.578Z,8.50
2019-05-06T12:58:03.875Z,8.50
2019-05-06T13:01:06.253Z,8.60
2019-05-06T13:04:08.460Z,8.60
2019-05-06T13:07:13.097Z,8.60
2019-05-06T13:10:17.487Z,8.70
2019-05-06T13:13:22.290Z,8.70
2019-05-06T13:16:22.905Z,8.70
2019-05-06T13:19:24.307Z,8.80
2019-05-06T13:22:34.564Z,8.80
2019-05-06T13:25:36.861Z,8.90
2019-05-06T13:28:42.513Z,9.10
2019-05-06T13:31:43.707Z,9.30
2019-05-06T13:34:45.152Z,9.40
2019-05-06T13:37:47.423Z,9.60
2019-05-06T13:40:54.818Z,9.70
2019-05-06T13:43:58.314Z,9.90
2019-05-06T13:47:02.792Z,10.00
2019-05-06T13:50:03.238Z,10.10
2019-05-06T13:53:11.477Z,10.10
2019-05-06T13:56:07.870Z,10.20
2019-05-06T13:59:12.710Z,10.30
2019-05-06T14:02:18.972Z,10.30
2019-05-06T14:05:21.314Z,10.40
2019-05-06T14:08:23.566Z,10.50
2019-05-06T14:11:25.847Z,10.60
2019-05-06T14:14:28.120Z,10.60
2019-05-06T14:17:32.635Z,10.50
2019-05-06T14:20:33.588Z,10.40
2019-05-06T14:23:34.903Z,10.40
2019-05-06T14:26:44.744Z,10.40
2019-05-06T14:29:53.134Z,10.40
2019-05-06T14:32:53.010Z,10.40
2019-05-06T14:35:55.275Z,10.30
2019-05-06T14:38:57.588Z,10.40
2019-05-06T14:42:02.257Z,10.40
2019-05-06T14:45:02.206Z,10.40
2019-05-06T14:48:04.580Z,10.40
2019-05-06T14:51:07.335Z,10.40
2019-05-06T14:54:14.589Z,10.40
2019-05-06T14:57:12.495Z,10.50
2019-05-06T15:00:15.559Z,10.40
2019-05-06T15:03:17.795Z,10.40
2019-05-06T15:06:22.173Z,10.20
2019-05-06T15:09:22.714Z,10.20
2019-05-06T15:12:24.651Z,10.20
2019-05-06T15:15:26.864Z,10.20
2019-05-06T15:18:29.126Z,10.10
2019-05-06T15:21:38.029Z,10.20
2019-05-06T15:24:33.581Z,10.20
2019-05-06T15:27:35.791Z,10.10
2019-05-06T15:30:42.942Z,10.10
2019-05-06T15:33:45.517Z,9.90
2019-05-06T15:36:53.175Z,9.70
2019-05-06T15:39:55.415Z,9.60
2019-05-06T15:42:57.628Z,9.40
2019-05-06T15:45:59.899Z,9.30
2019-05-06T15:49:02.973Z,9.20
2019-05-06T15:52:04.352Z,9.20
2019-05-06T15:55:06.599Z,9.10
2019-05-06T15:58:08.834Z,9.10
2019-05-06T16:01:11.067Z,9.10
2019-05-06T16:04:13.313Z,9.10
2019-05-06T16:07:15.550Z,9.10
2019-05-06T16:10:17.801Z,9.10
2019-05-06T16:13:22.164Z,9.10
2019-05-06T16:16:22.788Z,9.10
2019-05-06T16:19:24.466Z,9.10
2019-05-06T16:22:26.690Z,9.10
2019-05-06T16:25:29.069Z,9.10
2019-05-06T16:28:31.316Z,9.10
2019-05-06T16:31:33.669Z,9.20
2019-05-06T16:34:35.893Z,9.20
2019-05-06T16:37:38.164Z,9.10
2019-05-06T16:40:42.624Z,9.10
2019-05-06T16:43:42.759Z,9.20
2019-05-06T16:46:44.880Z,9.20
2019-05-06T16:49:47.067Z,9.30
2019-05-06T16:52:49.339Z,9.30
2019-05-06T16:55:57.244Z,9.30
2019-05-06T16:59:02.882Z,9.30
2019-05-06T17:02:07.167Z,9.40
2019-05-06T17:05:15.119Z,9.40
2019-05-06T17:08:17.220Z,9.40
2019-05-06T17:11:28.099Z,9.40
2019-05-06T17:14:21.739Z,9.40
2019-05-06T17:17:23.965Z,9.30
2019-05-06T17:20:26.204Z,9.30
2019-05-06T17:23:28.469Z,9.20
2019-05-06T17:26:31.193Z,9.10
2019-05-06T17:29:38.714Z,8.90
2019-05-06T17:32:45.334Z,8.80
2019-05-06T17:35:47.575Z,8.70
2019-05-06T17:38:49.877Z,8.60
2019-05-06T17:41:52.284Z,8.50
2019-05-06T17:44:54.389Z,8.40
2019-05-06T17:48:02.779Z,8.20
2019-05-06T17:51:08.996Z,8.10
2019-05-06T17:54:12.358Z,8.10
2019-05-06T17:57:13.553Z,8.00
2019-05-06T18:00:15.927Z,7.90
2019-05-06T18:03:18.140Z,7.90
2019-05-06T18:06:22.810Z,7.90
2019-05-06T18:09:22.640Z,7.90
2019-05-06T18:12:24.859Z,7.90
2019-05-06T18:15:27.092Z,7.90
2019-05-06T18:18:29.366Z,7.80
2019-05-06T18:21:31.629Z,7.80
2019-05-06T18:24:34.002Z,7.80
2019-05-06T18:27:36.258Z,7.80
2019-05-06T18:30:38.563Z,7.80
2019-05-06T18:33:42.981Z,7.80
2019-05-06T18:36:43.155Z,7.80
2019-05-06T18:39:45.395Z,7.80
2019-05-06T18:42:47.644Z,7.80
2019-05-06T18:45:52.011Z,7.80
2019-05-06T18:48:52.545Z,7.80
2019-05-06T18:51:54.493Z,7.70
2019-05-06T18:54:56.775Z,7.70
2019-05-06T18:57:59.050Z,7.70
2019-05-06T19:01:03.791Z,7.70
2019-05-06T19:04:12.861Z,7.70
2019-05-06T19:07:17.055Z,7.70
2019-05-06T19:10:22.372Z,7.70
2019-05-06T19:13:23.004Z,7.70
2019-05-06T19:16:25.275Z,7.60
2019-05-06T19:19:27.499Z,7.60
2019-05-06T19:22:29.732Z,7.60
2019-05-06T19:25:34.551Z,7.60
2019-05-06T19:28:34.385Z,7.60
2019-05-06T19:31:36.645Z,7.60
2019-05-06T19:34:38.904Z,7.60
2019-05-06T19:37:41.230Z,7.60
2019-05-06T19:40:43.503Z,7.60
2019-05-06T19:43:45.816Z,7.50
2019-05-06T19:46:48.049Z,7.50
2019-05-06T19:49:50.287Z,7.50
2019-05-06T19:52:52.925Z,7.50
2019-05-06T19:55:54.804Z,7.50
2019-05-06T19:58:57.015Z,7.50
2019-05-06T20:01:59.331Z,7.50
2019-05-06T20:05:04.518Z,7.50
2019-05-06T20:08:12.476Z,7.50
2019-05-06T20:11:22.486Z,7.50
2019-05-06T20:14:22.579Z,7.40
2019-05-06T20:17:24.834Z,7.40
2019-05-06T20:20:27.139Z,7.40
2019-05-06T20:23:29.423Z,7.40
2019-05-06T20:26:32.427Z,7.40
2019-05-06T20:29:36.896Z,7.40
2019-05-06T20:32:36.177Z,7.30
2019-05-06T20:35:38.391Z,7.30
2019-05-06T20:38:42.304Z,7.30
2019-05-06T20:41:42.914Z,7.30
2019-05-06T20:44:45.159Z,7.30
2019-05-06T20:47:47.379Z,7.30
2019-05-06T20:50:49.599Z,7.30
2019-05-06T20:53:51.814Z,7.30
2019-05-06T20:56:54.031Z,7.20
2019-05-06T20:59:56.300Z,7.20
2019-05-06T21:02:58.502Z,7.20
2019-05-06T21:06:02.107Z,7.20
2019-05-06T21:09:05.287Z,7.20
2019-05-06T21:12:07.523Z,7.10
2019-05-06T21:15:09.802Z,7.10
2019-05-06T21:18:12.203Z,7.10
2019-05-06T21:21:14.273Z,7.10
2019-05-06T21:24:22.663Z,7.10
2019-05-06T21:27:24.455Z,7.10
2019-05-06T21:30:26.659Z,7.10
2019-05-06T21:33:28.923Z,7.10
2019-05-06T21:36:31.187Z,7.00
2019-05-06T21:39:33.407Z,7.00
2019-05-06T21:42:35.691Z,7.00
2019-05-06T21:45:37.883Z,7.00
2019-05-06T21:48:41.959Z,7.00
2019-05-06T21:51:42.757Z,7.00
2019-05-06T21:54:44.629Z,6.90
2019-05-06T21:57:46.863Z,6.90
2019-05-06T22:00:54.231Z,6.90
2019-05-06T22:03:56.487Z,6.90
2019-05-06T22:06:58.711Z,6.90
2019-05-06T22:10:00.940Z,6.90
2019-05-06T22:13:03.164Z,6.90
2019-05-06T22:16:05.435Z,6.90
2019-05-06T22:19:07.703Z,6.90
2019-05-06T22:22:12.048Z,6.90
2019-05-06T22:25:13.699Z,6.90
2019-05-06T22:28:15.955Z,6.90
2019-05-06T22:31:18.215Z,6.90
2019-05-06T22:34:22.069Z,6.90
2019-05-06T22:37:22.659Z,6.90
2019-05-06T22:40:24.891Z,6.80
2019-05-06T22:43:27.115Z,6.80
2019-05-06T22:46:29.353Z,6.80
2019-05-06T22:49:32.062Z,6.80
2019-05-06T22:52:33.821Z,6.80
2019-05-06T22:55:36.024Z,6.70
2019-05-06T22:58:38.219Z,6.70
2019-05-06T23:01:46.066Z,6.60
2019-05-06T23:04:49.735Z,6.60
2019-05-06T23:07:53.275Z,6.60
2019-05-06T23:10:54.262Z,6.50
2019-05-06T23:13:56.491Z,6.50
2019-05-06T23:16:58.702Z,6.50
2019-05-06T23:20:02.338Z,6.40
2019-05-06T23:23:04.933Z,6.40
2019-05-06T23:26:12.957Z,6.40
2019-05-06T23:29:13.263Z,6.30
2019-05-06T23:32:15.491Z,6.30
2019-05-06T23:35:17.788Z,6.20
2019-05-06T23:38:33.750Z,6.10
2019-05-06T23:41:45.181Z,6.10
2019-05-06T23:44:58.883Z,6.00
2019-05-06T23:48:12.448Z,5.90
2019-05-06T23:51:26.140Z,5.90
2019-05-06T23:54:39.838Z,5.80
2019-05-06T23:57:41.876Z,5.80
